Aérodrome :
LOGIN :

S'inscrire | Disclaimer

   EN    FR    IT 

 










Légende :    VFR   VFR Marginal   IFR   IFR Intensif   IFR Très Intensif
Visi : 
Plafond : 
>= 8 km
>= 3000ft
5 à 8 km
1000 à 3000 ft
1500m à 5 km
500 à 1000 ft
800 à 1500m
200 à 500 ft
< 800m
< 200 ft
Symboles :   Orages  Brouillard  Fortes neiges  Fortes précipitations  Vent > 20 kt
SIGMETs :   Divers  Orages  Givrage  Turbulence  Onde Orograph.  Cendres Volcan.







- Altitude de l'aérodrome : 238 ft
- Code IATA : FAB
- Voir les cartes d'approche


EGLF - Farnborough

DERNIER METAR :
  • 181920Z 17011KT 8000 RA SCT007 SCT011 08/07 Q1001

METARs EXPIRÉS :
  • 181850Z 17013KT 8000 RA SCT007 SCT011 08/07 Q1002
  • 181820Z 16011KT 130V190 8000 RA SCT007 BKN011 08/07 Q1002
  • 181750Z 16011KT 8000 -RA SCT007 BKN011 08/07 Q1002
  • 181720Z 17012KT 120V190 8000 -RA BKN009 08/07 Q1003 RERA
  • 181650Z 16009KT 7000 RA SCT010 BKN014 08/07 Q1003
  • 181620Z 16011KT 8000 -RA FEW010 SCT016 08/06 Q1003

TAF TAF EGLF
Valide du 18 à 18h jusqu'au 18 à 22h UTC


181658Z 1818/1822 16017G30KT 9999 SCT016
TEMPO 1818/1821 6000 RA
PROB30
TEMPO 1818/1821 3000 +RA BKN009
BECMG 1820/1822 22010KT
ATIS : +44 09063 800 400 (*282)
Pas de NOTAMs connus pour ce terrain.
2 SIGMETs publiés pour la FIR London (EGTT) :
 
Onde orographique forte
EGTT SIGMET 09 VALID 181900/182300 EGRR
EGTT LONDON FIR SEV MTW FCST WI N5220 W00530 - N5500 W00530 - N5500 W00015 - N5024 W00255 - N4959 W00548 - N5220 W00530 FL030/250 STNR WKN=
Onde orographique forte
EGTT SIGMET 08 VALID 181500/181900 EGRR
EGTT LONDON FIR SEV MTW FCST WI N5220 W00530 - N5500 W00530 - N5500 W00015 - N5024 W00255 - N4959 W00548 - N5220 W00530 FL030/250 STNR WKN=



MET'MAP, la Météo Aéronautique d'un coup d'oeil ! - Copyright ORBIFLY Décembre 2007 - Disclaimer

ORBIFLY MET'MAP TEAM :

Programmation & Développement : Alexandra Zaïnal
Conception & Développement : Baudouin d'Aumeries
Co-Programmation & Développement : Marc-Olivier Méhu
Soutien technique & logistique : Manuel Goepfert

Contact : metmap@orbifly.com




SOURCES & CREDITS :

   NOAA